Time;durP1;ratioP1;P1;durP2;ratioP2;P2;SDS_P1;SDS_P2;PMS_P1;PMS_P2;Temp;Humidity;BMP_temperature;BMP_pressure;BME280_temperature;BME280_humidity;BME280_pressure;Samples;Min_cycle;Max_cycle;Signal;HPM_P1;HPM_P2
2023/01/03 00:00:50;;;;;;;3.47;1.25;;;;;;;;;;5003823;28;20032;-79
2023/01/03 00:03:16;;;;;;;3.05;1.20;;;;;;;;;;5006625;28;20044;-78
2023/01/03 00:05:45;;;;;;;3.17;1.48;;;;;;;;;;5007831;28;20444;-81
2023/01/03 00:08:11;;;;;;;2.28;1.20;;;;;;;;;;5005536;28;20034;-79
2023/01/03 00:10:37;;;;;;;2.60;1.58;;;;;;;;;;5007216;28;20030;-80
2023/01/03 00:13:03;;;;;;;3.08;1.50;;;;;;;;;;5001848;28;20025;-81
2023/01/03 00:15:30;;;;;;;2.08;1.33;;;;;;;;;;4995062;28;20034;-79
2023/01/03 00:17:56;;;;;;;2.40;1.17;;;;;;;;;;5001193;28;20026;-81
2023/01/03 00:20:22;;;;;;;2.78;1.45;;;;;;;;;;5001708;28;20525;-83
2023/01/03 00:22:48;;;;;;;6.10;1.98;;;;;;;;;;5000679;28;20545;-80
2023/01/03 00:25:14;;;;;;;5.10;1.63;;;;;;;;;;5007812;28;20087;-80
2023/01/03 00:27:40;;;;;;;2.53;1.45;;;;;;;;;;5002777;28;20501;-78
2023/01/03 00:30:06;;;;;;;1.88;1.40;;;;;;;;;;5003144;28;20030;-82
2023/01/03 00:32:32;;;;;;;7.28;1.52;;;;;;;;;;4995155;28;20034;-80
2023/01/03 00:34:58;;;;;;;2.97;1.50;;;;;;;;;;4992072;28;20025;-81
2023/01/03 00:37:24;;;;;;;4.90;1.77;;;;;;;;;;5007123;28;20084;-79
2023/01/03 00:39:50;;;;;;;3.25;2.00;;;;;;;;;;5004698;28;20029;-81
2023/01/03 00:42:16;;;;;;;3.90;1.70;;;;;;;;;;5004725;28;20632;-81
2023/01/03 00:44:42;;;;;;;5.90;1.92;;;;;;;;;;5006362;28;20029;-78
2023/01/03 00:47:08;;;;;;;2.50;1.63;;;;;;;;;;4996878;28;20033;-81
2023/01/03 00:49:34;;;;;;;3.72;1.77;;;;;;;;;;5004350;28;20589;-81
2023/01/03 00:52:00;;;;;;;3.10;1.40;;;;;;;;;;5005776;28;20324;-78
2023/01/03 00:54:26;;;;;;;3.08;1.67;;;;;;;;;;5013419;28;20022;-81
2023/01/03 00:56:52;;;;;;;3.08;1.42;;;;;;;;;;5010773;28;20030;-80
2023/01/03 00:59:19;;;;;;;4.00;1.52;;;;;;;;;;5001070;28;20052;-80
2023/01/03 01:01:53;;;;;;;3.92;1.73;;;8.20;99.90;;;;;;5003461;28;20046;-79
2023/01/03 01:04:25;;;;;;;4.78;1.40;;;8.70;99.90;;;;;;4997649;28;20113;-80
2023/01/03 01:06:53;;;;;;;3.25;1.65;;;;;;;;;;5007756;28;20041;-82
2023/01/03 01:09:20;;;;;;;2.63;1.10;;;;;;;;;;5007926;28;20489;-79
2023/01/03 01:11:46;;;;;;;3.42;1.73;;;;;;;;;;5003966;28;20033;-81
2023/01/03 01:14:19;;;;;;;1.98;1.20;;;;;;;;;;5009917;28;20064;-80
2023/01/03 01:16:52;;;;;;;2.78;1.40;;;;;;;;;;4994142;28;20034;-79
2023/01/03 01:19:20;;;;;;;2.47;1.23;;;;;;;;;;5000101;28;20038;-81
2023/01/03 01:21:46;;;;;;;6.05;2.60;;;;;;;;;;5007813;28;20038;-82
2023/01/03 01:24:13;;;;;;;2.47;1.27;;;;;;;;;;5005688;28;20032;-82
2023/01/03 01:26:39;;;;;;;4.07;1.77;;;;;;;;;;5011358;28;20555;-78
2023/01/03 01:29:05;;;;;;;2.50;1.63;;;;;;;;;;4993501;28;20532;-82
2023/01/03 01:31:32;;;;;;;3.33;2.22;;;;;;;;;;4992784;28;20038;-80
2023/01/03 01:33:58;;;;;;;4.20;1.73;;;;;;;;;;5004911;28;20525;-79
2023/01/03 01:36:28;;;;;;;3.35;1.50;;;;;;;;;;4999586;28;20032;-82
2023/01/03 01:38:59;;;;;;;6.82;2.42;;;8.00;99.90;;;;;;5005768;28;20040;-81
2023/01/03 01:44:36;;;;;;;3.60;1.75;;;;;;;;;;5003443;28;20081;-82
2023/01/03 01:47:02;;;;;;;3.60;2.03;;;;;;;;;;4996718;28;20061;-80
2023/01/03 01:49:28;;;;;;;8.27;1.95;;;;;;;;;;5007220;28;20041;-79
2023/01/03 01:51:54;;;;;;;4.00;1.73;;;;;;;;;;5010218;28;20132;-81
2023/01/03 01:54:20;;;;;;;3.42;1.77;;;;;;;;;;5006634;28;20144;-81
2023/01/03 01:56:47;;;;;;;3.17;1.45;;;;;;;;;;5006886;28;20030;-80
2023/01/03 01:59:14;;;;;;;4.53;1.95;;;;;;;;;;5006489;28;20040;-81
2023/01/03 02:01:40;;;;;;;4.45;1.90;;;;;;;;;;4995386;28;20149;-81
2023/01/03 02:04:09;;;;;;;7.72;1.42;;;;;;;;;;5003694;28;20108;-80
2023/01/03 02:06:35;;;;;;;3.03;1.60;;;;;;;;;;5008451;28;20030;-80
2023/01/03 02:09:01;;;;;;;3.38;1.90;;;;;;;;;;5007131;28;20030;-82
2023/01/03 02:11:32;;;;;;;4.03;2.42;;;;;;;;;;5004605;28;20557;-81
2023/01/03 02:14:11;;;;;;;6.03;2.95;;;;;;;;;;5009282;28;20100;-80
2023/01/03 02:16:47;;;;;;;5.93;2.45;;;;;;;;;;5010654;28;20045;-81
2023/01/03 02:19:13;;;;;;;4.13;2.03;;;;;;;;;;5006473;28;20056;-80
2023/01/03 02:21:55;;;;;;;4.85;2.05;;;8.10;99.90;;;;;;5002762;28;20073;-81
2023/01/03 02:24:30;;;;;;;3.55;2.05;;;;;;;;;;4995159;28;20088;-81
2023/01/03 02:27:08;;;;;;;5.90;2.42;;;;;;;;;;4998820;28;20072;-80
2023/01/03 02:29:37;;;;;;;4.30;2.33;;;;;;;;;;4994689;28;20030;-82
2023/01/03 02:32:09;;;;;;;4.43;2.13;;;;;;;;;;5004166;28;20036;-80
2023/01/03 02:34:53;;;;;;;4.50;2.20;;;;;;;;;;4997322;28;20045;-83
2023/01/03 02:37:25;;;;;;;4.05;2.13;;;;;;;;;;4996545;28;20037;-82
2023/01/03 02:40:09;;;;;;;4.75;2.22;;;;;;;;;;5003269;28;20041;-80
2023/01/03 02:42:56;;;;;;;2.95;1.60;;;7.30;99.90;;;;;;5002492;28;20052;-80
2023/01/03 02:45:31;;;;;;;3.95;2.40;;;;;;;;;;4990094;28;20100;-78
2023/01/03 02:48:01;;;;;;;8.05;2.22;;;;;;;;;;5007283;28;20165;-81
2023/01/03 02:50:33;;;;;;;4.28;1.90;;;8.10;99.90;;;;;;5006923;28;20030;-79
2023/01/03 02:53:01;;;;;;;4.95;2.35;;;;;;;;;;5007276;28;20033;-80
2023/01/03 02:55:30;;;;;;;5.57;2.85;;;;;;;;;;5010150;28;20048;-79
2023/01/03 02:58:01;;;;;;;3.75;1.83;;;;;;;;;;5011300;28;20034;-80
2023/01/03 03:00:28;;;;;;;4.45;2.42;;;;;;;;;;4998913;28;20038;-82
2023/01/03 03:03:05;;;;;;;2.90;1.98;;;7.90;99.90;;;;;;4998956;28;20095;-82
2023/01/03 03:05:37;;;;;;;3.53;1.85;;;;;;;;;;5004793;28;20030;-80
2023/01/03 03:08:03;;;;;;;5.43;2.33;;;;;;;;;;5002081;28;20041;-81
2023/01/03 03:13:14;;;;;;;5.43;1.92;;;;;;;;;;5011286;28;20060;-79
2023/01/03 03:15:43;;;;;;;6.25;2.72;;;;;;;;;;5000451;28;20046;-77
2023/01/03 03:18:15;;;;;;;4.65;2.75;;;7.80;99.90;;;;;;5007145;28;20065;-80
2023/01/03 03:26:14;;;;;;;4.30;2.03;;;;;;;;;;5011732;28;20033;-80
2023/01/03 03:28:43;;;;;;;3.95;2.83;;;;;;;;;;5005511;28;20044;-81
2023/01/03 03:31:12;;;;;;;3.40;2.00;;;;;;;;;;5000762;28;20054;-83
2023/01/03 03:33:46;;;;;;;4.35;2.28;;;6.40;99.90;;;;;;5003204;28;20039;-81
2023/01/03 03:36:20;;;;;;;4.00;2.13;;;6.40;99.90;;;;;;5007623;28;20536;-79
2023/01/03 03:38:47;;;;;;;4.57;1.60;;;;;;;;;;5006963;28;20038;-81
2023/01/03 03:47:25;;;;;;;5.25;1.67;;;;;;;;;;5005413;28;20072;-79
2023/01/03 03:49:53;;;;;;;3.92;1.67;;;;;;;;;;5008567;28;20041;-81
2023/01/03 03:52:21;;;;;;;2.95;1.85;;;;;;;;;;5011989;28;20022;-79
2023/01/03 03:54:54;;;;;;;3.67;2.50;;;;;;;;;;5004163;28;20030;-78
2023/01/03 03:57:24;;;;;;;3.17;1.65;;;;;;;;;;5009977;28;20465;-81
2023/01/03 03:59:54;;;;;;;3.20;1.55;;;;;;;;;;4995825;28;20030;-81
2023/01/03 04:02:21;;;;;;;3.35;1.55;;;;;;;;;;4997200;28;20652;-82
2023/01/03 04:04:49;;;;;;;3.08;1.90;;;;;;;;;;5002680;28;20041;-79
2023/01/03 04:07:15;;;;;;;4.47;2.13;;;;;;;;;;5004769;28;20038;-79
2023/01/03 04:09:41;;;;;;;3.70;2.00;;;;;;;;;;5011557;28;20411;-77
2023/01/03 04:12:07;;;;;;;4.20;2.28;;;;;;;;;;4998060;28;20718;-82
2023/01/03 04:14:33;;;;;;;4.50;2.53;;;;;;;;;;5007036;28;20041;-81
2023/01/03 04:16:59;;;;;;;4.22;2.15;;;;;;;;;;5003161;28;20148;-80
2023/01/03 04:19:24;;;;;;;4.07;2.53;;;5.40;99.90;;;;;;5001401;28;20041;-78
2023/01/03 04:21:50;;;;;;;3.20;1.90;;;;;;;;;;5000616;28;20057;-78
2023/01/03 04:24:19;;;;;;;5.55;2.50;;;;;;;;;;4997864;28;20058;-82
2023/01/03 04:26:45;;;;;;;5.60;3.22;;;;;;;;;;5003131;28;20030;-83
2023/01/03 04:29:11;;;;;;;4.68;2.10;;;;;;;;;;5003725;28;20348;-80
2023/01/03 04:31:37;;;;;;;4.05;2.55;;;;;;;;;;5006966;28;20026;-80
2023/01/03 04:34:03;;;;;;;2.88;1.80;;;;;;;;;;5003358;28;20029;-79
2023/01/03 04:36:29;;;;;;;3.80;2.20;;;;;;;;;;5005887;28;20239;-83
2023/01/03 04:38:55;;;;;;;3.08;1.95;;;;;;;;;;5000369;28;20022;-81
2023/01/03 04:41:21;;;;;;;3.75;1.70;;;;;;;;;;5007375;28;20042;-79
2023/01/03 04:44:03;;;;;;;5.18;2.65;;;;;;;;;;4995658;28;20038;-78
2023/01/03 04:46:30;;;;;;;3.28;1.73;;;;;;;;;;5009924;28;20700;-81
2023/01/03 04:48:56;;;;;;;1.98;1.50;;;;;;;;;;5006022;28;20026;-78
2023/01/03 04:51:22;;;;;;;4.55;2.00;;;;;;;;;;5011834;28;20048;-80
2023/01/03 04:53:48;;;;;;;5.15;1.88;;;;;;;;;;5002680;28;20030;-80
2023/01/03 04:56:14;;;;;;;4.07;2.13;;;;;;;;;;5006813;28;20034;-81
2023/01/03 04:58:40;;;;;;;4.63;2.40;;;;;;;;;;5001539;28;21269;-81
2023/01/03 05:01:06;;;;;;;6.25;3.60;;;;;;;;;;5002771;28;20430;-78
2023/01/03 05:03:32;;;;;;;11.23;5.63;;;5.20;99.90;;;;;;4991616;28;20474;-79
2023/01/03 05:05:59;;;;;;;12.13;5.68;;;;;;;;;;5001240;28;20045;-78
2023/01/03 05:08:25;;;;;;;8.77;4.95;;;;;;;;;;5000700;28;20467;-80
2023/01/03 05:10:52;;;;;;;18.30;8.18;;;;;;;;;;5002120;28;20041;-79
2023/01/03 05:13:18;;;;;;;7.00;3.80;;;;;;;;;;5002307;28;20042;-80
2023/01/03 05:15:44;;;;;;;8.57;4.57;;;;;;;;;;5002094;28;20042;-81
2023/01/03 05:18:10;;;;;;;11.93;4.70;;;;;;;;;;5006637;28;20144;-79
2023/01/03 05:26:19;;;;;;;13.80;2.90;;;;;;;;;;5001504;28;20075;-81
2023/01/03 05:28:50;;;;;;;5.70;2.75;;;;;;;;;;5004568;28;20040;-81
2023/01/03 05:31:16;;;;;;;6.68;3.20;;;;;;;;;;5002591;28;20590;-80
2023/01/03 05:33:42;;;;;;;6.78;3.90;;;;;;;;;;4999057;28;20025;-80
2023/01/03 05:36:08;;;;;;;7.10;3.15;;;;;;;;;;4993993;28;20601;-83
2023/01/03 05:38:34;;;;;;;10.10;4.65;;;;;;;;;;5004230;28;20625;-82
2023/01/03 05:41:00;;;;;;;8.02;4.45;;;;;;;;;;5003574;28;20513;-81
2023/01/03 05:43:26;;;;;;;10.75;4.30;;;;;;;;;;4995519;28;20072;-80
2023/01/03 05:45:52;;;;;;;12.18;3.53;;;;;;;;;;4995660;28;20018;-81
2023/01/03 05:48:19;;;;;;;3.78;1.98;;;;;;;;;;5001251;28;20487;-82
2023/01/03 05:50:45;;;;;;;5.97;3.42;;;;;;;;;;4997822;28;20121;-82
2023/01/03 05:53:11;;;;;;;3.47;2.05;;;;;;;;;;5001885;28;20036;-83
2023/01/03 05:55:37;;;;;;;5.88;3.25;;;;;;;;;;5002247;28;20624;-80
2023/01/03 05:58:04;;;;;;;4.90;2.55;;;;;;;;;;5001052;28;20034;-82
2023/01/03 06:00:30;;;;;;;7.57;3.45;;;;;;;;;;4994435;28;20102;-79
2023/01/03 06:02:56;;;;;;;8.13;3.75;;;;;;;;;;5004748;28;20066;-83
2023/01/03 06:05:22;;;;;;;12.95;3.78;;;;;;;;;;5002196;28;20457;-83
2023/01/03 06:07:48;;;;;;;5.05;2.92;;;;;;;;;;5005042;28;20447;-79
2023/01/03 06:10:14;;;;;;;5.38;2.55;;;;;;;;;;5005479;28;20031;-81
2023/01/03 06:12:40;;;;;;;6.78;2.67;;;;;;;;;;5005281;28;20561;-81
2023/01/03 06:15:06;;;;;;;4.85;2.40;;;;;;;;;;5001900;28;20026;-83
2023/01/03 06:20:17;;;;;;;12.60;3.85;;;;;;;;;;5006358;28;20060;-81
2023/01/03 06:22:43;;;;;;;4.95;3.05;;;;;;;;;;5005743;28;20755;-82
2023/01/03 06:25:09;;;;;;;5.88;2.80;;;;;;;;;;5005342;28;20153;-83
2023/01/03 06:27:35;;;;;;;4.70;2.80;;;;;;;;;;5009004;28;20038;-79
2023/01/03 06:30:01;;;;;;;6.35;2.80;;;;;;;;;;5012317;28;20029;-80
2023/01/03 06:32:27;;;;;;;4.80;2.47;;;;;;;;;;4989576;28;20033;-82
2023/01/03 06:34:53;;;;;;;7.97;3.33;;;;;;;;;;4999935;28;20082;-80
2023/01/03 06:37:20;;;;;;;7.40;3.55;;;;;;;;;;5010752;28;20033;-81
2023/01/03 06:39:46;;;;;;;4.70;2.45;;;;;;;;;;5005626;28;20026;-81
2023/01/03 06:53:15;;;;;;;6.88;2.90;;;;;;;;;;5004148;28;20057;-82
2023/01/03 06:55:42;;;;;;;6.00;2.67;;;6.00;99.90;;;;;;5011937;28;20033;-79
2023/01/03 06:58:08;;;;;;;4.38;2.60;;;;;;;;;;5008618;28;20406;-80
2023/01/03 07:00:38;;;;;;;6.32;3.33;;;;;;;;;;5006922;28;20045;-78
2023/01/03 07:03:04;;;;;;;8.45;3.33;;;;;;;;;;5005418;28;20208;-82
2023/01/03 07:05:30;;;;;;;3.25;2.17;;;;;;;;;;5007308;28;20018;-82
2023/01/03 07:07:56;;;;;;;3.63;2.60;;;;;;;;;;5008606;28;20448;-81
2023/01/03 07:10:22;;;;;;;7.78;3.05;;;;;;;;;;5004464;28;20601;-82
2023/01/03 07:15:33;;;;;;;4.95;2.47;;;5.60;99.90;;;;;;5005820;28;20533;-80
2023/01/03 07:17:59;;;;;;;5.75;2.90;;;;;;;;;;5008273;28;20094;-82
2023/01/03 07:20:25;;;;;;;4.85;2.22;;;;;;;;;;5005082;28;20029;-81
2023/01/03 07:22:51;;;;;;;7.60;2.75;;;6.00;99.90;;;;;;5006646;28;20991;-80
2023/01/03 07:25:17;;;;;;;8.20;3.33;;;;;;;;;;5004213;28;20022;-78
2023/01/03 07:27:43;;;;;;;6.47;2.92;;;;;;;;;;5017066;28;20033;-79
2023/01/03 07:30:09;;;;;;;4.07;2.17;;;;;;;;;;5004901;28;20114;-78
2023/01/03 07:32:35;;;;;;;7.00;3.63;;;;;;;;;;5016621;28;20041;-80
2023/01/03 07:35:01;;;;;;;7.47;2.97;;;;;;;;;;5003878;28;20030;-80
2023/01/03 07:37:27;;;;;;;8.00;2.72;;;;;;;;;;5012378;28;20042;-80
2023/01/03 07:39:53;;;;;;;7.03;3.83;;;;;;;;;;5007142;28;20025;-79
2023/01/03 07:45:04;;;;;;;8.98;3.92;;;;;;;;;;5008069;28;20032;-80
2023/01/03 07:47:30;;;;;;;5.93;2.92;;;;;;;;;;5019215;28;20038;-81
2023/01/03 07:49:56;;;;;;;6.72;3.17;;;;;;;;;;5006268;28;20206;-79
2023/01/03 07:52:22;;;;;;;5.32;2.58;;;;;;;;;;5001651;28;20982;-78
2023/01/03 07:54:48;;;;;;;5.60;2.50;;;;;;;;;;5012484;28;20489;-79
2023/01/03 07:57:14;;;;;;;6.55;2.80;;;;;;;;;;5010824;28;20592;-78
2023/01/03 07:59:40;;;;;;;6.15;3.25;;;;;;;;;;5010370;28;20057;-78
2023/01/03 08:02:07;;;;;;;6.07;2.85;;;;;;;;;;5004183;28;20790;-78
2023/01/03 08:04:33;;;;;;;13.60;3.90;;;;;;;;;;5006299;28;20468;-78
2023/01/03 08:06:59;;;;;;;7.15;3.30;;;;;;;;;;5014014;28;20073;-79
2023/01/03 08:14:55;;;;;;;6.65;3.13;;;;;;;;;;5004874;28;20092;-80
2023/01/03 08:17:21;;;;;;;5.22;3.08;;;;;;;;;;5005016;28;20066;-79
2023/01/03 08:19:46;;;;;;;8.50;3.40;;;;;;;;;;5004521;28;20030;-77
2023/01/03 08:22:12;;;;;;;5.70;3.50;;;;;;;;;;5007977;28;20042;-77
2023/01/03 08:24:38;;;;;;;8.40;4.47;;;;;;;;;;5001547;28;20034;-78
2023/01/03 08:27:04;;;;;;;6.25;2.97;;;;;;;;;;5009918;28;20029;-79
2023/01/03 08:29:30;;;;;;;12.70;4.05;;;;;;;;;;5007335;28;20018;-80
2023/01/03 08:31:58;;;;;;;5.88;2.55;;;;;;;;;;5017855;28;20026;-79
2023/01/03 08:34:26;;;;;;;6.55;3.28;;;6.30;99.90;;;;;;5001269;28;20029;-79
2023/01/03 08:36:56;;;;;;;8.63;4.05;;;;;;;;;;5000075;28;20137;-78
2023/01/03 08:39:25;;;;;;;7.95;3.85;;;;;;;;;;5003674;28;20079;-80
2023/01/03 08:41:54;;;;;;;12.38;4.20;;;;;;;;;;5005288;28;20069;-79
2023/01/03 08:44:20;;;;;;;5.85;3.25;;;;;;;;;;5001379;28;20060;-79
2023/01/03 08:46:49;;;;;;;6.07;3.47;;;;;;;;;;4996031;28;20033;-81
2023/01/03 08:49:15;;;;;;;8.57;4.13;;;;;;;;;;4990041;28;20021;-84
2023/01/03 08:51:41;;;;;;;6.53;2.97;;;;;;;;;;5005026;28;20121;-78
2023/01/03 08:54:07;;;;;;;17.23;7.90;;;;;;;;;;4994340;28;23124;-81
2023/01/03 08:56:36;;;;;;;21.30;12.40;;;;;;;;;;5001555;28;20033;-80
2023/01/03 08:59:02;;;;;;;14.88;7.70;;;;;;;;;;5006023;28;20056;-81
2023/01/03 09:01:28;;;;;;;15.13;7.03;;;;;;;;;;4998650;28;20057;-79
2023/01/03 09:03:53;;;;;;;12.32;5.03;;;6.70;99.90;;;;;;5003103;28;20026;-79
2023/01/03 09:06:19;;;;;;;7.30;3.80;;;;;;;;;;5000986;28;20045;-81
2023/01/03 09:08:45;;;;;;;11.25;4.15;;;;;;;;;;5007351;28;20032;-81
2023/01/03 09:11:11;;;;;;;8.07;3.92;;;;;;;;;;4996730;28;20414;-78
2023/01/03 09:13:38;;;;;;;6.93;4.05;;;;;;;;;;5006224;28;20033;-81
2023/01/03 09:16:05;;;;;;;9.52;4.30;;;;;;;;;;4998094;28;20638;-81
2023/01/03 09:18:32;;;;;;;8.48;4.18;;;;;;;;;;5008415;28;20030;-81
2023/01/03 09:20:58;;;;;;;8.63;4.25;;;;;;;;;;5007048;28;20034;-80
2023/01/03 09:23:24;;;;;;;8.48;3.92;;;;;;;;;;5009884;28;20065;-78
2023/01/03 09:25:50;;;;;;;6.57;3.97;;;;;;;;;;4997701;28;20105;-80
2023/01/03 09:28:15;;;;;;;13.13;4.82;;;;;;;;;;4995570;28;20027;-78
2023/01/03 09:30:41;;;;;;;6.15;3.33;;;;;;;;;;5002477;28;20113;-83
2023/01/03 09:33:09;;;;;;;7.10;3.53;;;;;;;;;;5009804;28;20030;-81
2023/01/03 09:35:35;;;;;;;6.15;3.38;;;;;;;;;;5007019;28;20435;-80
2023/01/03 09:38:01;;;;;;;7.65;3.83;;;;;;;;;;4999498;28;20038;-80
2023/01/03 09:40:29;;;;;;;7.88;4.07;;;;;;;;;;5001817;28;20061;-78
2023/01/03 09:43:14;;;;;;;6.32;3.55;;;;;;;;;;4991630;28;20049;-80
2023/01/03 09:45:50;;;;;;;8.23;3.92;;;6.70;99.90;;;;;;5001898;28;20037;-81
2023/01/03 09:48:18;;;;;;;8.32;4.43;;;;;;;;;;5004380;28;20456;-80
2023/01/03 09:50:45;;;;;;;9.93;5.13;;;;;;;;;;5001358;28;20486;-80
2023/01/03 10:04:53;;;;;;;10.95;4.45;;;6.80;99.90;;;;;;5011626;28;20058;-79
2023/01/03 10:07:42;;;;;;;7.65;3.88;;;;;;;;;;5003017;28;20505;-78
2023/01/03 10:10:08;;;;;;;10.65;4.60;;;;;;;;;;4988912;28;20031;-81
2023/01/03 10:12:41;;;;;;;9.23;4.47;;;;;;;;;;4997670;28;20040;-80
2023/01/03 10:15:07;;;;;;;;;;;;;;;;;;5006626;28;20030;-81
2023/01/03 10:17:36;;;;;;;8.20;4.30;;;;;;;;;;5006868;28;19913;-79
2023/01/03 10:20:04;;;;;;;10.18;4.97;;;;;;;;;;5006183;28;20076;-80
2023/01/03 10:22:31;;;;;;;11.55;5.82;;;;;;;;;;5005892;28;20648;-80
2023/01/03 10:25:09;;;;;;;11.73;5.43;;;;;;;;;;5008462;28;20033;-81
2023/01/03 10:27:38;;;;;;;12.10;6.78;;;;;;;;;;5000409;28;20037;-79
2023/01/03 10:30:06;;;;;;;11.75;6.30;;;;;;;;;;5000606;28;20023;-81
2023/01/03 10:32:44;;;;;;;11.00;5.85;;;;;;;;;;5009451;28;20512;-81
2023/01/03 10:35:18;;;;;;;8.93;5.35;;;;;;;;;;4994910;28;20041;-82
2023/01/03 10:37:45;;;;;;;8.50;4.68;;;;;;;;;;4997257;28;20032;-81
2023/01/03 10:40:12;;;;;;;7.93;4.50;;;6.70;99.90;;;;;;5007196;28;20109;-78
2023/01/03 10:42:38;;;;;;;4.80;3.15;;;;;;;;;;4994393;28;20041;-78
2023/01/03 10:45:14;;;;;;;7.88;3.75;;;;;;;;;;4991914;28;20030;-80
2023/01/03 10:47:40;;;;;;;6.10;3.58;;;;;;;;;;4990652;28;20061;-78
2023/01/03 10:50:08;;;;;;;5.60;2.97;;;;;;;;;;5004631;28;20026;-81
2023/01/03 10:52:38;;;;;;;5.70;3.17;;;7.90;99.90;;;;;;4989746;28;20022;-79
2023/01/03 10:55:14;;;;;;;6.25;2.75;;;;;;;;;;4995868;28;20467;-80
2023/01/03 10:57:47;;;;;;;6.15;3.13;;;;;;;;;;4997524;28;20034;-80
2023/01/03 11:00:18;;;;;;;3.65;2.42;;;;;;;;;;4995731;28;20142;-85
2023/01/03 11:02:44;;;;;;;3.88;2.40;;;;;;;;;;5001910;28;20045;-84
2023/01/03 11:05:17;;;;;;;6.10;2.35;;;;;;;;;;4997740;28;20030;-81
2023/01/03 11:07:43;;;;;;;8.80;2.53;;;;;;;;;;5006097;28;20463;-81
2023/01/03 11:10:15;;;;;;;8.73;2.25;;;;;;;;;;5002677;28;20026;-82
2023/01/03 11:12:41;;;;;;;7.10;3.05;;;;;;;;;;5004940;28;20026;-79
2023/01/03 11:15:17;;;;;;;8.55;2.58;;;;;;;;;;5010938;28;20021;-84
2023/01/03 11:17:52;;;;;;;5.45;3.35;;;;;;;;;;4992232;28;20033;-78
2023/01/03 11:20:21;;;;;;;4.75;3.03;;;;;;;;;;5006839;28;20063;-77
2023/01/03 11:22:52;;;;;;;6.03;2.60;;;;;;;;;;5001340;28;20060;-81
2023/01/03 11:25:28;;;;;;;5.60;1.88;;;8.90;99.90;;;;;;5010078;28;20122;-81
2023/01/03 11:28:23;;;;;;;4.80;2.75;;;10.20;99.90;;;;;;5005275;28;20025;-80
2023/01/03 11:31:20;;;;;;;6.35;2.67;;;10.20;99.90;;;;;;4997490;28;20168;-80
2023/01/03 11:34:05;;;;;;;5.40;2.00;;;;;;;;;;4997924;28;20034;-81
2023/01/03 11:36:34;;;;;;;5.35;2.05;;;;;;;;;;4998424;28;20038;-82
2023/01/03 11:39:06;;;;;;;4.03;2.20;;;;;;;;;;5006693;28;20029;-80
2023/01/03 11:41:38;;;;;;;5.28;2.13;;;;;;;;;;5007361;28;20053;-80
2023/01/03 11:44:22;;;;;;;2.67;1.13;;;9.70;99.90;;;;;;5000776;28;20937;-81
2023/01/03 11:47:01;;;;;;;3.03;1.38;;;10.50;99.90;;;;;;5010228;28;20037;-80
2023/01/03 11:49:36;;;;;;;1.77;0.98;;;;;;;;;;5008528;28;20360;-81
2023/01/03 11:52:34;;;;;;;3.30;0.82;;;10.20;99.90;;;;;;5008405;28;20084;-79
2023/01/03 11:55:12;;;;;;;3.50;1.05;;;;;;;;;;5012830;28;20034;-81
2023/01/03 11:57:38;;;;;;;3.15;1.05;;;;;;;;;;5000139;28;20034;-81
2023/01/03 12:00:07;;;;;;;2.22;1.00;;;;;;;;;;5002002;28;20026;-79
2023/01/03 12:02:36;;;;;;;1.98;0.90;;;;;;;;;;4999356;28;20052;-81
2023/01/03 12:05:39;;;;;;;1.20;0.70;;;9.80;99.90;;;;;;4996883;28;20038;-81
2023/01/03 12:08:11;;;;;;;1.90;0.93;;;;;;;;;;4997799;28;20030;-81
2023/01/03 12:10:47;;;;;;;1.40;1.30;;;;;;;;;;5002160;28;20193;-79
2023/01/03 12:13:38;;;;;;;1.17;0.88;;;10.20;99.90;;;;;;4998311;28;20034;-79
2023/01/03 12:16:34;;;;;;;2.72;1.25;;;;;;;;;;4997496;28;20397;-81
2023/01/03 12:19:07;;;;;;;2.00;0.75;;;;;;;;;;4997444;28;20057;-80
2023/01/03 12:21:37;;;;;;;0.73;0.47;;;;;;;;;;5001741;28;20034;-81
2023/01/03 12:24:07;;;;;;;1.98;0.80;;;;;;;;;;4992379;28;20034;-79
2023/01/03 12:26:33;;;;;;;2.28;0.90;;;;;;;;;;5001970;28;20025;-80
2023/01/03 12:29:05;;;;;;;1.17;0.70;;;;;;;;;;4996423;28;20027;-77
2023/01/03 12:31:33;;;;;;;4.88;1.02;;;;;;;;;;5006071;28;20553;-78
2023/01/03 12:34:06;;;;;;;3.13;0.63;;;;;;;;;;5002239;28;20032;-80
2023/01/03 12:36:32;;;;;;;;;;;;;;;;;;5006456;28;20092;-80
2023/01/03 12:39:17;;;;;;;1.98;0.82;;;;;;;;;;5000670;28;20362;-80
2023/01/03 12:41:46;;;;;;;2.05;0.70;;;10.30;99.90;;;;;;5009300;28;20080;-79
2023/01/03 12:44:15;;;;;;;2.60;0.60;;;;;;;;;;5005529;28;20537;-83
2023/01/03 12:46:43;;;;;;;2.25;0.77;;;;;;;;;;5005708;28;20037;-80
2023/01/03 12:49:24;;;;;;;1.00;0.60;;;10.10;99.90;;;;;;5010955;28;20080;-80
2023/01/03 12:51:50;;;;;;;2.28;0.60;;;;;;;;;;5009476;28;20037;-78
2023/01/03 12:54:44;;;;;;;1.92;0.60;;;10.10;99.90;;;;;;5003763;28;20018;-80
2023/01/03 12:57:21;;;;;;;1.27;0.63;;;;;;;;;;4990662;28;20326;-79
2023/01/03 12:59:49;;;;;;;9.23;0.85;;;;;;;;;;5006011;28;20037;-81
2023/01/03 13:02:23;;;;;;;0.47;0.30;;;10.00;99.90;;;;;;5007043;28;20054;-83
2023/01/03 13:04:50;;;;;;;1.30;0.60;;;;;;;;;;5003595;28;20023;-80
2023/01/03 13:07:19;;;;;;;1.38;0.75;;;;;;;;;;4999699;28;20478;-78
2023/01/03 13:09:49;;;;;;;1.75;0.75;;;;;;;;;;4999375;28;20042;-82
2023/01/03 13:12:21;;;;;;;1.88;0.60;;;10.00;99.90;;;;;;5004737;28;20032;-79
2023/01/03 13:14:52;;;;;;;4.32;0.68;;;;;;;;;;5000960;28;20031;-80
2023/01/03 13:17:19;;;;;;;1.75;1.00;;;;;;;;;;4998354;28;20029;-83
2023/01/03 13:19:52;;;;;;;2.20;0.95;;;;;;;;;;4997323;28;20731;-81
2023/01/03 13:22:18;;;;;;;4.57;0.55;;;;;;;;;;5004636;28;21007;-79
2023/01/03 13:24:44;;;;;;;2.22;0.70;;;;;;;;;;5010036;28;20014;-81
2023/01/03 13:27:16;;;;;;;1.00;0.50;;;;;;;;;;5009094;28;20037;-83
2023/01/03 13:29:48;;;;;;;1.98;0.70;;;;;;;;;;4999762;28;20046;-79
2023/01/03 13:32:24;;;;;;;1.95;0.68;;;;;;;;;;5003699;28;20038;-79
2023/01/03 13:34:53;;;;;;;1.48;1.15;;;;;;;;;;5007884;28;20030;-81
2023/01/03 13:37:21;;;;;;;2.92;0.50;;;;;;;;;;5000670;28;20117;-81
2023/01/03 13:39:55;;;;;;;0.93;0.50;;;;;;;;;;4992645;28;20132;-80
2023/01/03 13:42:26;;;;;;;1.15;0.73;;;;;;;;;;5001858;28;20072;-82
2023/01/03 13:44:54;;;;;;;0.38;0.30;;;;;;;;;;4999983;28;20026;-79
2023/01/03 13:47:25;;;;;;;2.63;0.50;;;;;;;;;;4995187;28;20529;-78
2023/01/03 13:49:51;;;;;;;2.70;1.27;;;;;;;;;;5008011;28;20037;-80
2023/01/03 13:52:36;;;;;;;1.67;0.60;;;;;;;;;;4998866;28;20022;-80
2023/01/03 13:55:02;;;;;;;9.85;3.55;;;;;;;;;;5012163;28;20033;-79
2023/01/03 13:57:30;;;;;;;7.07;2.50;;;;;;;;;;5003068;28;20410;-79
2023/01/03 13:59:58;;;;;;;11.80;3.40;;;;;;;;;;5002620;28;20068;-82
2023/01/03 14:02:33;;;;;;;4.30;2.20;;;;;;;;;;4997230;28;20049;-81
2023/01/03 14:05:19;;;;;;;5.65;1.60;;;;;;;;;;5000181;28;20129;-79
2023/01/03 14:07:50;;;;;;;1.08;0.68;;;;;;;;;;4998311;28;20030;-82
2023/01/03 14:10:21;;;;;;;16.73;7.45;;;;;;;;;;4993785;28;20022;-79
2023/01/03 14:13:29;;;;;;;9.90;3.47;;;8.60;99.90;;;;;;5003578;28;20265;-79
2023/01/03 14:16:17;;;;;;;3.28;1.05;;;;;;;;;;4995548;28;20529;-77
2023/01/03 14:19:03;;;;;;;0.80;0.40;;;;;;;;;;4994220;28;20041;-80
2023/01/03 14:21:46;;;;;;;4.18;0.60;;;9.30;99.90;;;;;;4997565;28;20034;-81
2023/01/03 14:24:25;;;;;;;1.88;0.90;;;;;;;;;;4998195;28;20026;-82
2023/01/03 14:26:52;;;;;;;1.15;1.02;;;;;;;;;;5004850;28;20541;-81
2023/01/03 14:29:20;;;;;;;3.53;1.13;;;;;;;;;;4998399;28;20034;-80
2023/01/03 14:31:47;;;;;;;3.25;1.45;;;;;;;;;;4996075;28;20034;-80
2023/01/03 14:34:18;;;;;;;5.75;1.80;;;;;;;;;;5004171;28;20026;-79
2023/01/03 14:36:45;;;;;;;2.83;1.10;;;;;;;;;;4995551;28;20026;-80
2023/01/03 14:39:19;;;;;;;1.55;0.57;;;;;;;;;;5003525;28;20041;-79
2023/01/03 14:41:46;;;;;;;4.68;0.75;;;;;;;;;;5007753;28;20034;-79
2023/01/03 14:44:12;;;;;;;3.03;1.38;;;;;;;;;;4993207;28;20109;-80
2023/01/03 14:46:41;;;;;;;2.95;1.10;;;;;;;;;;4997028;28;20209;-80
2023/01/03 14:49:16;;;;;;;1.00;0.55;;;;;;;;;;4997215;28;20196;-82
2023/01/03 14:51:42;;;;;;;1.83;0.60;;;;;;;;;;4997410;28;20113;-79
2023/01/03 14:54:14;;;;;;;0.68;0.52;;;;;;;;;;5006493;28;20555;-83
2023/01/03 14:56:44;;;;;;;0.77;0.43;;;;;;;;;;5005207;28;20042;-82
2023/01/03 14:59:10;;;;;;;1.05;0.70;;;;;;;;;;5002785;28;20543;-77
2023/01/03 15:01:36;;;;;;;1.30;0.60;;;;;;;;;;5001207;28;20030;-80
2023/01/03 15:04:02;;;;;;;1.88;0.88;;;;;;;;;;5005044;28;20042;-81
2023/01/03 15:06:30;;;;;;;3.72;1.42;;;;;;;;;;5007763;28;20030;-84
2023/01/03 15:08:57;;;;;;;4.57;1.20;;;;;;;;;;4993390;28;20041;-79
2023/01/03 15:11:27;;;;;;;1.52;0.80;;;;;;;;;;5007384;28;20030;-83
2023/01/03 15:14:01;;;;;;;3.63;0.80;;;;;;;;;;5003030;28;20038;-83
2023/01/03 15:16:30;;;;;;;10.15;4.40;;;;;;;;;;5001047;28;20741;-83
2023/01/03 15:19:19;;;;;;;8.10;5.40;;;;;;;;;;4997650;28;20033;-79
2023/01/03 15:21:45;;;;;;;5.57;2.20;;;;;;;;;;5005182;28;20054;-77
2023/01/03 15:24:20;;;;;;;7.20;0.90;;;;;;;;;;5006999;28;20033;-78
2023/01/03 15:26:47;;;;;;;1.85;0.88;;;;;;;;;;5001765;28;20652;-80
2023/01/03 15:29:24;;;;;;;2.20;0.90;;;;;;;;;;4992560;28;20048;-79
2023/01/03 15:31:52;;;;;;;1.40;0.60;;;;;;;;;;5005560;28;20055;-80
2023/01/03 15:34:21;;;;;;;2.70;0.98;;;;;;;;;;5001546;28;20127;-80
2023/01/03 15:36:58;;;;;;;1.55;0.90;;;;;;;;;;4998754;28;20237;-78
2023/01/03 15:39:25;;;;;;;4.10;0.77;;;;;;;;;;5000225;28;20385;-80
2023/01/03 15:44:40;;;;;;;1.30;0.70;;;6.60;99.90;;;;;;5005712;28;20580;-83
2023/01/03 15:47:07;;;;;;;1.30;1.10;;;;;;;;;;4997579;28;20118;-82